createdAt,value
2023-03-23T15:57:58.866Z,100033.56
2023-03-23T16:00:28.526Z,100016.53
2023-03-23T16:03:03.227Z,100004.31
2023-03-23T16:05:30.543Z,100006.88
2023-03-23T16:07:58.108Z,100010.06
2023-03-23T16:10:26.946Z,99999.50
2023-03-23T16:12:54.112Z,100008.25
2023-03-23T16:15:21.405Z,100005.09
2023-03-23T16:17:48.742Z,100010.75
2023-03-23T16:20:19.624Z,100009.38
2023-03-23T16:22:47.953Z,100003.31
2023-03-23T16:25:15.977Z,100007.31
2023-03-23T16:27:44.076Z,100008.59
2023-03-23T16:30:19.160Z,100009.25
2023-03-23T16:32:47.119Z,100007.50
2023-03-23T16:35:15.691Z,100002.53
2023-03-23T16:37:52.122Z,99989.00
2023-03-23T16:40:36.930Z,99998.69
2023-03-23T16:43:08.993Z,99992.56
2023-03-23T16:45:38.620Z,99986.63
2023-03-23T16:48:07.894Z,99973.19
2023-03-23T16:50:36.615Z,99968.16
2023-03-23T16:53:05.848Z,99959.28
2023-03-23T16:55:33.338Z,99967.28
2023-03-23T16:58:15.345Z,99948.19
2023-03-23T17:00:49.057Z,99956.56
2023-03-23T17:03:18.454Z,99960.50
2023-03-23T17:05:48.180Z,99955.53
2023-03-23T17:08:16.192Z,99947.28
2023-03-23T17:10:44.065Z,99941.78
2023-03-23T17:13:11.332Z,99935.81
2023-03-23T17:15:42.121Z,99944.00
2023-03-23T17:18:10.379Z,99925.41
2023-03-23T17:20:37.617Z,99935.22
2023-03-23T17:23:05.503Z,99945.69
2023-03-23T17:25:33.068Z,99935.59
2023-03-23T17:28:05.456Z,99935.66
2023-03-23T17:30:35.384Z,99939.91
2023-03-23T17:33:02.881Z,99920.63
2023-03-23T17:35:30.048Z,99926.94
2023-03-23T17:37:57.078Z,99921.59
2023-03-23T17:40:24.134Z,99924.56
2023-03-23T17:42:51.147Z,99929.91
2023-03-23T17:45:18.371Z,99923.63
2023-03-23T17:47:45.446Z,99929.13
2023-03-23T17:50:13.464Z,99925.34
2023-03-23T17:52:41.646Z,99924.03
2023-03-23T17:55:08.830Z,99929.94
2023-03-23T17:57:36.326Z,99933.97
2023-03-23T18:00:07.896Z,99946.56
2023-03-23T18:02:36.830Z,99937.03
2023-03-23T18:05:04.431Z,99928.63
2023-03-23T18:07:31.474Z,99922.44
2023-03-23T18:10:00.926Z,99934.78
2023-03-23T18:12:28.189Z,99922.19
2023-03-23T18:14:59.004Z,99914.88
2023-03-23T18:17:26.861Z,99925.38
2023-03-23T18:19:54.445Z,99914.63
2023-03-23T18:22:21.949Z,99917.91
2023-03-23T18:24:49.250Z,99908.03
2023-03-23T18:27:17.315Z,99915.56
2023-03-23T18:29:44.351Z,99910.59
2023-03-23T18:32:11.370Z,99916.56
2023-03-23T18:34:41.944Z,99907.66
2023-03-23T18:37:09.279Z,99901.19
2023-03-23T18:39:38.020Z,99898.22
2023-03-23T18:42:06.226Z,99884.66
2023-03-23T18:44:33.546Z,99893.19
2023-03-23T18:47:00.856Z,99882.44
2023-03-23T18:49:29.023Z,99883.72
2023-03-23T18:51:56.287Z,99877.13
2023-03-23T18:54:23.245Z,99868.00
2023-03-23T18:56:50.307Z,99876.28
2023-03-23T18:59:17.412Z,99864.66
2023-03-23T19:01:44.419Z,99858.44
2023-03-23T19:04:14.570Z,99847.00
2023-03-23T19:06:41.572Z,99846.59
2023-03-23T19:09:09.030Z,99835.47
2023-03-23T19:11:36.137Z,99838.09
2023-03-23T19:14:03.748Z,99834.63
2023-03-23T19:16:38.251Z,99846.81
2023-03-23T19:19:08.287Z,99833.59
2023-03-23T19:21:37.610Z,99842.75
2023-03-23T19:24:06.530Z,99825.25
2023-03-23T19:26:40.400Z,99844.97
2023-03-23T19:31:46.172Z,99839.97
2023-03-23T19:34:15.509Z,99839.22
2023-03-23T19:36:48.184Z,99845.63
2023-03-23T19:39:22.057Z,99834.25
2023-03-23T19:41:50.927Z,99832.44
2023-03-23T19:44:18.348Z,99826.44
2023-03-23T19:46:45.652Z,99824.16
2023-03-23T19:49:12.870Z,99818.34
2023-03-23T19:51:41.100Z,99831.59
2023-03-23T19:54:08.902Z,99827.34
2023-03-23T19:56:36.233Z,99816.53
2023-03-23T19:59:03.632Z,99815.69
2023-03-23T20:01:31.503Z,99820.63
2023-03-23T20:04:00.327Z,99808.28
2023-03-23T20:06:29.312Z,99821.91
2023-03-23T20:09:00.201Z,99816.75
2023-03-23T20:11:28.962Z,99809.28
2023-03-23T20:13:56.776Z,99810.97
2023-03-23T20:16:25.335Z,99811.97
2023-03-23T20:18:53.512Z,99809.59
2023-03-23T20:21:23.046Z,99800.78
2023-03-23T20:23:53.038Z,99819.09
2023-03-23T20:26:38.894Z,99799.88
2023-03-23T20:29:07.974Z,99780.63
2023-03-23T20:31:38.716Z,99788.81
2023-03-23T20:34:11.451Z,99773.06
2023-03-23T20:36:42.952Z,99777.47
2023-03-23T20:39:21.574Z,99782.22
2023-03-23T20:41:54.561Z,99770.25
2023-03-23T20:44:25.202Z,99766.66
2023-03-23T20:46:53.700Z,99766.09
2023-03-23T20:49:22.053Z,99779.91
2023-03-23T20:51:50.718Z,99770.22
2023-03-23T20:54:19.694Z,99767.50
2023-03-23T20:56:48.140Z,99766.78
2023-03-23T20:59:16.534Z,99754.09
2023-03-23T21:01:44.834Z,99757.41
2023-03-23T21:04:18.746Z,99745.88
2023-03-23T21:06:49.066Z,99756.13
2023-03-23T21:09:17.970Z,99750.19
2023-03-23T21:11:46.371Z,99748.09
2023-03-23T21:14:14.019Z,99733.50
2023-03-23T21:16:41.888Z,99728.84
2023-03-23T21:19:09.836Z,99750.19
2023-03-23T21:21:37.268Z,99737.59
2023-03-23T21:24:04.512Z,99726.06
2023-03-23T21:26:31.552Z,99736.06
2023-03-23T21:29:01.648Z,99717.44
2023-03-23T21:31:30.663Z,99727.09
2023-03-23T21:34:01.441Z,99730.06
2023-03-23T21:36:29.232Z,99704.38
2023-03-23T21:38:57.186Z,99722.56
2023-03-23T21:41:24.839Z,99717.66
2023-03-23T21:43:52.141Z,99713.13
2023-03-23T21:46:19.581Z,99719.25
2023-03-23T21:48:51.640Z,99693.13
2023-03-23T21:51:29.867Z,99696.63
2023-03-23T21:53:57.946Z,99694.09
2023-03-23T21:56:29.948Z,99697.63
2023-03-23T21:58:57.486Z,99688.31
2023-03-23T22:01:24.925Z,99685.09
2023-03-23T22:03:52.041Z,99674.75
2023-03-23T22:06:24.953Z,99698.34
2023-03-23T22:08:53.005Z,99687.63
2023-03-23T22:11:28.610Z,99685.84
2023-03-23T22:13:58.566Z,99683.22
2023-03-23T22:16:26.646Z,99691.75
2023-03-23T22:18:55.470Z,99675.84
2023-03-23T22:21:27.661Z,99673.75
2023-03-23T22:23:58.879Z,99674.84
2023-03-23T22:26:27.745Z,99663.22
2023-03-23T22:28:55.894Z,99644.63
2023-03-23T22:31:27.495Z,99645.78
2023-03-23T22:33:56.613Z,99636.72
2023-03-23T22:36:25.924Z,99641.72
2023-03-23T22:38:55.032Z,99623.38
2023-03-23T22:41:32.916Z,99598.84
2023-03-23T22:44:00.234Z,99606.66
2023-03-23T22:46:27.588Z,99639.66
2023-03-23T22:48:54.860Z,99646.53
2023-03-23T22:51:22.828Z,99608.16
2023-03-23T22:53:51.252Z,99626.34
2023-03-23T22:56:19.113Z,99610.81
2023-03-23T22:58:46.466Z,99601.53
2023-03-23T23:01:20.673Z,99593.28
2023-03-23T23:03:48.704Z,99591.50
2023-03-23T23:06:17.770Z,99587.13
2023-03-23T23:08:46.222Z,99585.66
2023-03-23T23:11:16.348Z,99584.63
2023-03-23T23:13:43.931Z,99569.16
2023-03-23T23:16:14.147Z,99580.91
2023-03-23T23:18:41.844Z,99584.44
2023-03-23T23:21:14.155Z,99587.78
2023-03-23T23:23:41.547Z,99576.19
2023-03-23T23:26:09.451Z,99574.31
2023-03-23T23:28:36.920Z,99580.66
2023-03-23T23:31:06.410Z,99581.34
2023-03-23T23:33:33.642Z,99579.47
2023-03-23T23:36:01.654Z,99566.78
2023-03-23T23:38:28.828Z,99576.81
2023-03-23T23:40:55.846Z,99562.38
2023-03-23T23:43:22.894Z,99564.56
2023-03-23T23:45:49.974Z,99586.47
2023-03-23T23:48:17.331Z,99567.13
2023-03-23T23:50:44.603Z,99572.72
2023-03-23T23:53:12.993Z,99561.91
2023-03-23T23:55:40.526Z,99561.75
2023-03-23T23:58:07.762Z,99551.34
